Stations météo

Publicité
Dunstaffnage, Grande-Bretagne (99006): Température de l'air & dewpoint: 07.12.2018 11:00:00 - 13.12.2018 11:00:00 (GMT)Dunstaffnage, Grande-Bretagne (99006): Température de l'air -20cm: 07.12.2018 11:00:00 - 13.12.2018 11:00:00 (GMT)Dunstaffnage, Grande-Bretagne (99006): Vitesse du vent & gusts: 07.12.2018 11:00:00 - 13.12.2018 11:00:00 (GMT)Dunstaffnage, Grande-Bretagne (99006): Direction du vent: 07.12.2018 11:00:00 - 13.12.2018 11:00:00 (GMT)Dunstaffnage, Grande-Bretagne (99006): Quantités de précipitations: 07.12.2018 11:00:00 - 13.12.2018 11:00:00 (GMT)
Date & Time tt [°C] td [°C] tt -20cm [°C] ff [km/h] ff [knt] fx [km/h] fx [knt] dd rr [mm]
13.12.2018 11:00:00 5,2 -1,1 - 31 17 54 29 ESE 0,0
13.12.2018 10:00:00 5,2 -0,9 - 29 16 - - ESE 0,0
13.12.2018 09:00:00 5,1 -0,8 6,4 22 12 - - E 0,0
13.12.2018 08:00:00 5,2 -0,7 - 29 16 52 28 ESE 0,0
13.12.2018 07:00:00 5,1 -1,3 - 34 18 52 28 E 0,0
13.12.2018 06:00:00 5,1 -1,2 - 22 12 - - E 0,0
13.12.2018 05:00:00 5,0 -1,6 - 22 12 46 25 E 0,0
13.12.2018 04:00:00 4,7 -1,9 - 22 12 57 31 E 0,0
13.12.2018 03:00:00 5,0 -2,4 - 24 13 54 29 E 0,0
13.12.2018 02:00:00 5,3 -1,1 - 18 10 48 26 ESE 0,0
13.12.2018 01:00:00 5,5 0,7 - 35 19 48 26 E 0,0
13.12.2018 00:00:00 6,3 1,6 - 29 16 54 29 E 0,0
12.12.2018 23:00:00 7,1 2,6 - 35 19 57 31 E 0,0
12.12.2018 22:00:00 7,6 3,3 - 39 21 55 30 E 0,0
12.12.2018 21:00:00 7,7 3,1 - 26 14 46 25 E 0,0
12.12.2018 20:00:00 8,2 3,3 - 34 18 48 26 E 0,0
12.12.2018 19:00:00 8,3 3,5 - 29 16 54 29 ESE 0,0
12.12.2018 18:00:00 8,4 4,0 - 21 11 - - E 0,0
12.12.2018 17:00:00 8,4 4,2 - 22 12 46 25 ESE 0,0
12.12.2018 16:00:00 8,1 4,9 - 18 10 - - E 0,0
12.12.2018 15:00:00 8,0 4,7 - 21 11 - - E 0,0
12.12.2018 14:00:00 8,2 4,9 - 18 10 - - ESE 0,0
12.12.2018 13:00:00 8,3 5,2 - 26 14 - - ESE 0,0
12.12.2018 12:00:00 8,2 5,9 - 18 10 - - E 0,0
12.12.2018 11:00:00 9,0 5,5 - 21 11 - - ESE 0,0
12.12.2018 10:00:00 8,7 5,8 - 22 12 - - ESE 0,0
12.12.2018 09:00:00 8,7 6,0 6,5 24 13 - - ESE 0,0
12.12.2018 08:00:00 8,7 6,0 - 24 13 - - ESE 0,0
12.12.2018 07:00:00 8,8 6,0 - 24 13 - - ESE 0,0
12.12.2018 06:00:00 8,6 6,1 - 22 12 - - ESE 0,0
12.12.2018 05:00:00 9,0 5,9 - 16 9 - - ESE 0,0
12.12.2018 04:00:00 9,2 5,9 - 11 6 - - ESE 0,0
12.12.2018 03:00:00 9,1 5,9 - 21 11 - - ESE 0,0
12.12.2018 02:00:00 9,1 5,9 - 29 16 46 25 ESE 0,0
12.12.2018 01:00:00 9,2 5,9 - 28 15 - - ESE 0,0
12.12.2018 00:00:00 9,4 5,7 - 13 7 - - ESE 0,0
11.12.2018 23:00:00 9,2 5,8 - 16 9 - - ESE 0,0
11.12.2018 22:00:00 9,3 5,5 - 11 6 - - SE 0,0
11.12.2018 21:00:00 9,2 5,8 - 24 13 - - ESE 0,0
11.12.2018 20:00:00 9,3 6,0 - 9 5 - - ESE 0,0
11.12.2018 19:00:00 8,9 6,5 - 8 4 - - ESE 0,0
11.12.2018 18:00:00 9,0 6,3 - 15 8 - - ESE 0,0
11.12.2018 17:00:00 9,1 6,5 - 21 11 - - E 0,0
11.12.2018 16:00:00 9,0 6,3 - 22 12 - - ESE 0,0
11.12.2018 15:00:00 9,1 6,6 - 15 8 - - E 0,0
11.12.2018 14:00:00 8,9 6,4 - 16 9 - - ESE 0,0
11.12.2018 13:00:00 9,1 6,4 - 24 13 - - ESE 0,0
11.12.2018 12:00:00 8,9 6,0 - 24 13 - - ESE 0,0
11.12.2018 11:00:00 8,6 5,9 - 16 9 - - ESE 0,0
11.12.2018 10:00:00 8,6 5,8 - 24 13 - - ESE 0,0
11.12.2018 09:00:00 8,5 5,6 5,7 22 12 - - ESE 0,0
11.12.2018 08:00:00 8,1 5,6 - 22 12 - - ESE 0,0
11.12.2018 07:00:00 7,7 5,5 - 24 13 - - ESE 0,0
11.12.2018 06:00:00 7,9 5,6 - 15 8 - - ESE 0,0
11.12.2018 05:00:00 7,9 5,4 - 22 12 - - ESE 0,0
11.12.2018 04:00:00 7,6 4,9 - 15 8 - - ESE 0,0
11.12.2018 03:00:00 7,8 4,9 - 24 13 - - ESE 0,0
11.12.2018 02:00:00 7,4 4,8 - 18 10 - - ESE 0,0
11.12.2018 01:00:00 7,8 4,6 - 16 9 - - ESE 0,0
11.12.2018 00:00:00 7,6 4,2 - 18 10 - - ESE 0,0
10.12.2018 23:00:00 7,2 4,1 - 18 10 - - ESE 0,0
10.12.2018 22:00:00 7,0 4,1 - 15 8 - - E 0,0
10.12.2018 21:00:00 6,6 3,6 - 18 10 - - ESE 0,0
10.12.2018 20:00:00 6,9 3,9 - 18 10 - - ESE 0,0
10.12.2018 19:00:00 6,0 3,3 - 15 8 - - E 0,0
10.12.2018 18:00:00 5,8 3,7 - 13 7 - - ESE 0,0
10.12.2018 17:00:00 4,9 3,2 - 11 6 - - E 0,0
10.12.2018 16:00:00 4,8 2,9 - 8 4 - - E 0,0
10.12.2018 15:00:00 5,0 3,2 - 13 7 - - E 0,0
10.12.2018 14:00:00 5,0 3,4 - 11 6 - - E 0,0
10.12.2018 13:00:00 - - - - - - - - -
10.12.2018 12:00:00 4,0 2,9 - 8 4 - - ENE 0,0
10.12.2018 11:00:00 3,4 3,1 - 13 7 - - E 0,0
10.12.2018 10:00:00 1,6 1,3 - 8 4 - - ENE 0,0
10.12.2018 09:00:00 0,8 0,4 5,7 2 1 - - SSW 0,0
10.12.2018 08:00:00 0,9 0,5 - 2 1 - - SW 0,0
10.12.2018 07:00:00 1,1 0,6 - 2 1 - - SSW 0,0
10.12.2018 06:00:00 1,4 0,8 - 2 1 - - SW 0,0
10.12.2018 05:00:00 1,7 1,0 - 0 0 - - N 0,0
10.12.2018 04:00:00 1,6 0,4 - 4 2 - - WSW 0,0
10.12.2018 03:00:00 3,8 1,8 - 8 4 - - NE 0,0
10.12.2018 02:00:00 5,8 2,6 - 11 6 - - WNW 0,0
10.12.2018 01:00:00 2,8 1,8 - 8 4 - - W 0,0
10.12.2018 00:00:00 3,7 2,6 - 4 2 - - SW 0,0
09.12.2018 23:00:00 4,7 2,3 - 8 4 - - SW 0,0
09.12.2018 22:00:00 6,5 4,2 - 18 10 - - W 0,0
09.12.2018 21:00:00 6,2 3,3 - 8 4 - - WNW 0,2
09.12.2018 20:00:00 6,6 4,0 - 15 8 - - W 0,0
09.12.2018 19:00:00 6,5 3,9 - 13 7 - - W 0,0
09.12.2018 18:00:00 6,4 3,4 - 18 10 - - W 0,0
09.12.2018 17:00:00 6,0 2,7 - 15 8 - - WNW 0,0
09.12.2018 16:00:00 6,0 2,7 - 15 8 - - WNW 0,0
09.12.2018 15:00:00 7,2 2,9 - 18 10 - - WNW 0,0
09.12.2018 14:00:00 7,3 3,4 - 21 11 - - WNW 0,0
09.12.2018 13:00:00 7,4 2,5 - 18 10 - - NW 0,0
09.12.2018 12:00:00 6,4 3,5 - 11 6 - - W 0,0
09.12.2018 11:00:00 6,0 2,5 - 5 3 - - WSW 0,0
09.12.2018 10:00:00 5,4 1,4 - 8 4 - - SW 0,0
09.12.2018 09:00:00 6,9 1,7 6,5 15 8 - - NW 0,0
09.12.2018 08:00:00 6,2 2,8 - 13 7 - - WNW 0,0
09.12.2018 07:00:00 6,8 2,8 - 13 7 - - NW 0,0
09.12.2018 06:00:00 6,8 3,9 - 13 7 - - NW 0,0
09.12.2018 05:00:00 6,8 3,6 - 15 8 - - NW 0,0
09.12.2018 04:00:00 7,1 3,7 - 13 7 - - NW 0,0
09.12.2018 03:00:00 6,3 4,5 - 5 3 - - N 0,0
09.12.2018 02:00:00 7,3 4,3 - 11 6 - - NW 0,0
09.12.2018 01:00:00 7,0 4,4 - 13 7 - - NW 0,0
09.12.2018 00:00:00 6,8 5,6 - 13 7 - - W 0,0
08.12.2018 23:00:00 6,0 5,2 - 5 3 - - WSW 0,0
08.12.2018 22:00:00 7,3 6,1 - 9 5 - - W 0,0
08.12.2018 21:00:00 7,3 6,0 - 11 6 - - WNW 0,0
08.12.2018 20:00:00 7,3 5,6 - 11 6 - - W 0,0
08.12.2018 19:00:00 7,4 5,9 - 15 8 - - W 0,0
08.12.2018 18:00:00 7,6 6,0 - 11 6 - - W 0,0
08.12.2018 17:00:00 6,9 5,3 - 8 4 - - SW 0,0
08.12.2018 16:00:00 7,5 5,7 - 13 7 - - SW 0,0
08.12.2018 15:00:00 8,2 5,7 - 9 5 - - WSW 0,0
08.12.2018 14:00:00 8,5 5,2 - 8 4 - - W 0,2
08.12.2018 13:00:00 9,1 5,7 - 9 5 - - WSW 0,0
08.12.2018 12:00:00 8,7 5,6 - 21 11 - - W 0,0
08.12.2018 11:00:00 8,9 5,9 - 22 12 - - W 0,0
08.12.2018 10:00:00 8,8 5,6 - 35 19 50 27 W 0,0
08.12.2018 09:00:00 9,0 6,1 6,7 31 17 - - W 0,0
08.12.2018 08:00:00 8,6 6,4 - 35 19 55 30 W 0,0
08.12.2018 07:00:00 8,9 6,9 - 34 18 55 30 W 0,8
08.12.2018 06:00:00 8,6 6,9 - 34 18 55 30 W 0,8
08.12.2018 05:00:00 9,4 6,7 - 39 21 63 34 W 0,0
08.12.2018 04:00:00 8,7 7,1 - 42 23 68 37 W 1,0
08.12.2018 03:00:00 8,5 7,3 - 48 26 76 41 W 0,8
08.12.2018 02:00:00 8,4 6,6 - 50 27 74 40 W 0,6
08.12.2018 01:00:00 8,6 7,3 - 44 24 72 39 W 0,8
08.12.2018 00:00:00 8,8 6,5 - 42 23 63 34 W 0,2
07.12.2018 23:00:00 8,5 6,9 - 39 21 57 31 W 0,6
07.12.2018 22:00:00 9,2 6,0 - 34 18 54 29 W 0,0
07.12.2018 21:00:00 9,4 6,4 - 42 23 63 34 W 0,4
07.12.2018 20:00:00 8,7 6,9 - 31 17 52 28 WSW 0,6
07.12.2018 19:00:00 8,6 6,7 - 41 22 63 34 W 0,8
07.12.2018 18:00:00 8,8 6,6 - 29 16 57 31 WSW 0,2
07.12.2018 17:00:00 8,5 5,8 - 41 22 70 38 WSW 1,2
07.12.2018 16:00:00 8,2 6,1 - 39 21 68 37 WSW 1,2
07.12.2018 15:00:00 7,5 5,8 - 37 20 61 33 WSW 1,6
07.12.2018 14:00:00 8,0 5,5 - 35 19 67 36 WSW 0,2
07.12.2018 13:00:00 7,4 5,1 - 39 21 68 37 WSW 1,0
07.12.2018 12:00:00 8,3 4,8 - 35 19 63 34 WSW 0,4
07.12.2018 11:00:00 8,2 4,0 - 31 17 80 43 WSW 0,0

tt = Température de l'air
td = dewpoint
tt -20cm = Température de l'air -20cm
ff = Vitesse du vent
fx = gusts
dd = Direction du vent
rr = Quantités de précipitations

stations d'obs. à proximité